sensor_id;sensor_type;location;lat;lon;timestamp;pressure;altitude;pressure_sealevel;temperature;humidity
59194;BME280;44967;48.598;15.650;2022-12-10T00:01:03;96862.03;;;7.23;58.71
59194;BME280;44967;48.598;15.650;2022-12-10T00:03:29;96861.97;;;7.19;58.70
59194;BME280;44967;48.598;15.650;2022-12-10T00:05:59;96865.00;;;7.14;59.20
59194;BME280;44967;48.598;15.650;2022-12-10T00:08:25;96868.88;;;7.13;59.08
59194;BME280;44967;48.598;15.650;2022-12-10T00:10:50;96879.84;;;7.20;59.23
59194;BME280;44967;48.598;15.650;2022-12-10T00:13:16;96881.75;;;7.20;58.88
59194;BME280;44967;48.598;15.650;2022-12-10T00:15:42;96885.28;;;7.20;59.42
59194;BME280;44967;48.598;15.650;2022-12-10T00:18:08;96883.09;;;7.33;58.83
59194;BME280;44967;48.598;15.650;2022-12-10T00:20:36;96877.25;;;7.31;58.84
59194;BME280;44967;48.598;15.650;2022-12-10T00:23:02;96871.38;;;7.29;58.87
59194;BME280;44967;48.598;15.650;2022-12-10T00:25:28;96879.09;;;7.23;57.30
59194;BME280;44967;48.598;15.650;2022-12-10T00:27:54;96869.38;;;7.22;59.57
59194;BME280;44967;48.598;15.650;2022-12-10T00:30:19;96878.28;;;7.19;59.67
59194;BME280;44967;48.598;15.650;2022-12-10T00:32:45;96882.16;;;7.22;59.72
59194;BME280;44967;48.598;15.650;2022-12-10T00:35:10;96877.78;;;7.13;58.19
59194;BME280;44967;48.598;15.650;2022-12-10T00:37:36;96880.16;;;7.15;58.25
59194;BME280;44967;48.598;15.650;2022-12-10T00:40:03;96894.03;;;7.10;59.47
59194;BME280;44967;48.598;15.650;2022-12-10T00:42:29;96885.94;;;7.13;58.03
59194;BME280;44967;48.598;15.650;2022-12-10T00:44:54;96892.66;;;7.23;58.96
59194;BME280;44967;48.598;15.650;2022-12-10T00:47:20;96884.16;;;7.25;59.27
59194;BME280;44967;48.598;15.650;2022-12-10T00:49:45;96890.84;;;7.31;58.82
59194;BME280;44967;48.598;15.650;2022-12-10T00:52:11;96894.75;;;7.37;58.47
59194;BME280;44967;48.598;15.650;2022-12-10T00:54:37;96889.59;;;7.25;58.24
59194;BME280;44967;48.598;15.650;2022-12-10T00:57:03;96901.16;;;7.22;59.24
59194;BME280;44967;48.598;15.650;2022-12-10T00:59:28;96901.66;;;7.27;58.24
59194;BME280;44967;48.598;15.650;2022-12-10T01:01:54;96901.25;;;7.29;60.11
59194;BME280;44967;48.598;15.650;2022-12-10T01:04:19;96900.06;;;7.26;57.75
59194;BME280;44967;48.598;15.650;2022-12-10T01:06:48;96900.94;;;7.34;58.37
59194;BME280;44967;48.598;15.650;2022-12-10T01:09:17;96901.75;;;7.35;57.35
59194;BME280;44967;48.598;15.650;2022-12-10T01:11:44;96902.00;;;7.26;59.33
59194;BME280;44967;48.598;15.650;2022-12-10T01:14:13;96900.09;;;7.30;58.38
59194;BME280;44967;48.598;15.650;2022-12-10T01:16:39;96903.25;;;7.32;58.77
59194;BME280;44967;48.598;15.650;2022-12-10T01:19:06;96898.94;;;7.27;59.21
59194;BME280;44967;48.598;15.650;2022-12-10T01:21:32;96891.91;;;7.23;58.60
59194;BME280;44967;48.598;15.650;2022-12-10T01:23:58;96894.47;;;7.12;58.00
59194;BME280;44967;48.598;15.650;2022-12-10T01:26:26;96890.56;;;6.82;57.51
59194;BME280;44967;48.598;15.650;2022-12-10T01:28:53;96896.53;;;6.92;59.87
59194;BME280;44967;48.598;15.650;2022-12-10T01:31:25;96902.78;;;6.96;59.87
59194;BME280;44967;48.598;15.650;2022-12-10T01:33:51;96897.00;;;6.97;59.55
59194;BME280;44967;48.598;15.650;2022-12-10T01:36:23;96907.91;;;7.01;58.76
59194;BME280;44967;48.598;15.650;2022-12-10T01:38:49;96902.75;;;6.92;59.10
59194;BME280;44967;48.598;15.650;2022-12-10T01:41:23;96902.75;;;6.92;59.29
59194;BME280;44967;48.598;15.650;2022-12-10T01:46:38;96907.91;;;7.01;58.50
59194;BME280;44967;48.598;15.650;2022-12-10T01:49:35;96898.97;;;7.00;58.15
59194;BME280;44967;48.598;15.650;2022-12-10T01:52:00;96898.88;;;6.93;58.78
59194;BME280;44967;48.598;15.650;2022-12-10T01:54:30;96908.97;;;6.93;59.97
59194;BME280;44967;48.598;15.650;2022-12-10T01:56:59;96904.00;;;6.98;59.15
59194;BME280;44967;48.598;15.650;2022-12-10T01:59:27;96907.06;;;6.97;58.38
59194;BME280;44967;48.598;15.650;2022-12-10T02:02:17;96912.34;;;6.86;58.71
59194;BME280;44967;48.598;15.650;2022-12-10T02:07:26;96929.19;;;6.99;58.76
59194;BME280;44967;48.598;15.650;2022-12-10T02:10:11;96928.84;;;6.74;57.84
59194;BME280;44967;48.598;15.650;2022-12-10T02:12:53;96920.19;;;6.91;57.66
59194;BME280;44967;48.598;15.650;2022-12-10T02:15:30;96921.53;;;7.05;58.68
59194;BME280;44967;48.598;15.650;2022-12-10T02:18:04;96935.88;;;7.05;58.96
59194;BME280;44967;48.598;15.650;2022-12-10T02:20:41;96932.34;;;7.01;58.63
59194;BME280;44967;48.598;15.650;2022-12-10T02:23:27;96936.88;;;6.93;57.99
59194;BME280;44967;48.598;15.650;2022-12-10T02:26:00;96932.13;;;6.86;58.96
59194;BME280;44967;48.598;15.650;2022-12-10T02:31:05;96921.94;;;6.80;57.88
59194;BME280;44967;48.598;15.650;2022-12-10T02:33:35;96927.84;;;6.85;57.73
59194;BME280;44967;48.598;15.650;2022-12-10T02:36:03;96922.72;;;6.80;59.09
59194;BME280;44967;48.598;15.650;2022-12-10T02:38:32;96941.72;;;6.80;57.70
59194;BME280;44967;48.598;15.650;2022-12-10T02:41:14;96938.78;;;6.66;57.47
59194;BME280;44967;48.598;15.650;2022-12-10T02:43:43;96951.53;;;6.62;58.62
59194;BME280;44967;48.598;15.650;2022-12-10T02:46:11;96937.41;;;6.52;59.30
59194;BME280;44967;48.598;15.650;2022-12-10T02:48:38;96941.91;;;6.68;59.73
59194;BME280;44967;48.598;15.650;2022-12-10T02:51:05;96944.03;;;6.78;59.53
59194;BME280;44967;48.598;15.650;2022-12-10T02:53:31;96936.72;;;6.82;58.34
59194;BME280;44967;48.598;15.650;2022-12-10T03:01:45;96935.44;;;6.72;58.16
59194;BME280;44967;48.598;15.650;2022-12-10T03:05:08;96957.19;;;6.76;59.41
59194;BME280;44967;48.598;15.650;2022-12-10T03:07:21;96956.63;;;6.67;58.63
59194;BME280;44967;48.598;15.650;2022-12-10T03:09:51;96958.19;;;6.68;58.95
59194;BME280;44967;48.598;15.650;2022-12-10T03:12:27;96958.31;;;6.75;59.00
59194;BME280;44967;48.598;15.650;2022-12-10T03:14:58;96954.47;;;6.76;57.79
59194;BME280;44967;48.598;15.650;2022-12-10T03:17:26;96954.25;;;6.62;57.88
59194;BME280;44967;48.598;15.650;2022-12-10T03:19:55;96956.63;;;6.67;58.30
59194;BME280;44967;48.598;15.650;2022-12-10T03:22:23;96955.94;;;6.70;56.24
59194;BME280;44967;48.598;15.650;2022-12-10T03:24:50;96945.47;;;6.72;58.38
59194;BME280;44967;48.598;15.650;2022-12-10T03:27:19;96946.81;;;6.82;57.34
59194;BME280;44967;48.598;15.650;2022-12-10T03:29:51;96938.63;;;6.55;58.67
59194;BME280;44967;48.598;15.650;2022-12-10T03:32:18;96933.53;;;6.50;58.63
59194;BME280;44967;48.598;15.650;2022-12-10T03:34:46;96931.72;;;6.11;59.34
59194;BME280;44967;48.598;15.650;2022-12-10T03:37:13;96930.81;;;6.03;58.55
59194;BME280;44967;48.598;15.650;2022-12-10T03:39:40;96925.63;;;6.41;59.40
59194;BME280;44967;48.598;15.650;2022-12-10T03:42:06;96929.97;;;6.22;58.01
59194;BME280;44967;48.598;15.650;2022-12-10T03:44:34;96925.44;;;6.30;59.63
59194;BME280;44967;48.598;15.650;2022-12-10T03:47:01;96939.91;;;6.38;58.95
59194;BME280;44967;48.598;15.650;2022-12-10T03:49:27;96925.75;;;6.25;58.14
59194;BME280;44967;48.598;15.650;2022-12-10T03:51:53;96913.50;;;6.35;59.00
59194;BME280;44967;48.598;15.650;2022-12-10T03:54:19;96919.66;;;6.31;58.94
59194;BME280;44967;48.598;15.650;2022-12-10T03:56:44;96921.91;;;6.26;59.20
59194;BME280;44967;48.598;15.650;2022-12-10T03:59:10;96915.41;;;6.30;58.19
59194;BME280;44967;48.598;15.650;2022-12-10T04:01:36;96920.88;;;6.11;57.29
59194;BME280;44967;48.598;15.650;2022-12-10T04:04:05;96912.31;;;6.09;57.56
59194;BME280;44967;48.598;15.650;2022-12-10T04:06:31;96931.09;;;6.21;58.25
59194;BME280;44967;48.598;15.650;2022-12-10T04:08:57;96935.34;;;6.19;57.81
59194;BME280;44967;48.598;15.650;2022-12-10T04:11:23;96946.59;;;6.21;59.31
59194;BME280;44967;48.598;15.650;2022-12-10T04:13:50;96933.41;;;6.19;59.07
59194;BME280;44967;48.598;15.650;2022-12-10T04:16:35;96940.44;;;6.24;59.28
59194;BME280;44967;48.598;15.650;2022-12-10T04:19:06;96937.78;;;6.27;59.46
59194;BME280;44967;48.598;15.650;2022-12-10T04:21:33;96951.34;;;6.27;58.39
59194;BME280;44967;48.598;15.650;2022-12-10T04:24:20;96966.78;;;6.23;58.64
59194;BME280;44967;48.598;15.650;2022-12-10T04:29:39;96964.03;;;6.20;59.31
59194;BME280;44967;48.598;15.650;2022-12-10T04:32:05;96956.78;;;6.27;59.78
59194;BME280;44967;48.598;15.650;2022-12-10T04:34:32;96949.84;;;6.30;58.45
59194;BME280;44967;48.598;15.650;2022-12-10T04:36:58;96945.63;;;6.33;58.52
59194;BME280;44967;48.598;15.650;2022-12-10T04:39:24;96953.91;;;6.40;58.19
59194;BME280;44967;48.598;15.650;2022-12-10T04:41:50;96953.91;;;6.40;58.62
59194;BME280;44967;48.598;15.650;2022-12-10T04:44:17;96954.59;;;6.37;59.64
59194;BME280;44967;48.598;15.650;2022-12-10T04:46:43;96960.47;;;6.39;58.66
59194;BME280;44967;48.598;15.650;2022-12-10T04:49:08;96961.22;;;6.39;58.77
59194;BME280;44967;48.598;15.650;2022-12-10T04:51:34;96965.09;;;6.38;57.70
59194;BME280;44967;48.598;15.650;2022-12-10T04:54:00;96970.22;;;6.43;59.15
59194;BME280;44967;48.598;15.650;2022-12-10T04:56:26;96960.25;;;6.51;59.21
59194;BME280;44967;48.598;15.650;2022-12-10T04:58:55;96963.91;;;6.59;58.80
59194;BME280;44967;48.598;15.650;2022-12-10T05:01:21;96963.47;;;6.57;59.44
59194;BME280;44967;48.598;15.650;2022-12-10T05:03:47;96955.81;;;6.63;58.53
59194;BME280;44967;48.598;15.650;2022-12-10T05:06:15;96961.19;;;6.59;57.86
59194;BME280;44967;48.598;15.650;2022-12-10T05:08:41;96966.31;;;6.64;58.25
59194;BME280;44967;48.598;15.650;2022-12-10T05:11:10;96965.81;;;6.58;58.54
59194;BME280;44967;48.598;15.650;2022-12-10T05:13:36;96956.47;;;6.56;58.10
59194;BME280;44967;48.598;15.650;2022-12-10T05:16:03;96964.66;;;6.59;58.62
59194;BME280;44967;48.598;15.650;2022-12-10T05:18:29;96968.97;;;6.61;57.94
59194;BME280;44967;48.598;15.650;2022-12-10T05:20:58;96972.03;;;6.59;57.40
59194;BME280;44967;48.598;15.650;2022-12-10T05:23:24;96969.66;;;6.57;58.99
59194;BME280;44967;48.598;15.650;2022-12-10T05:28:25;96964.34;;;6.65;58.37
59194;BME280;44967;48.598;15.650;2022-12-10T05:30:51;96968.44;;;6.78;58.78
59194;BME280;44967;48.598;15.650;2022-12-10T05:33:17;96969.44;;;6.66;58.67
59194;BME280;44967;48.598;15.650;2022-12-10T05:35:43;96963.53;;;6.61;58.52
59194;BME280;44967;48.598;15.650;2022-12-10T05:38:09;96968.03;;;6.76;58.81
59194;BME280;44967;48.598;15.650;2022-12-10T05:40:36;96972.56;;;6.68;57.56
59194;BME280;44967;48.598;15.650;2022-12-10T05:43:03;96983.53;;;6.52;58.54
59194;BME280;44967;48.598;15.650;2022-12-10T05:45:28;96985.41;;;6.48;59.82
59194;BME280;44967;48.598;15.650;2022-12-10T05:47:54;96977.94;;;6.65;59.53
59194;BME280;44967;48.598;15.650;2022-12-10T05:50:19;96978.41;;;6.70;57.89
59194;BME280;44967;48.598;15.650;2022-12-10T05:52:45;96975.03;;;6.54;59.05
59194;BME280;44967;48.598;15.650;2022-12-10T05:55:11;96987.16;;;6.60;58.84
59194;BME280;44967;48.598;15.650;2022-12-10T05:57:37;96984.44;;;6.60;59.36
59194;BME280;44967;48.598;15.650;2022-12-10T06:00:05;96989.94;;;6.64;59.28
59194;BME280;44967;48.598;15.650;2022-12-10T06:02:34;96994.56;;;6.63;59.00
59194;BME280;44967;48.598;15.650;2022-12-10T06:05:00;96999.09;;;6.55;57.90
59194;BME280;44967;48.598;15.650;2022-12-10T06:07:26;97008.81;;;6.56;59.18
59194;BME280;44967;48.598;15.650;2022-12-10T06:09:52;97006.50;;;6.58;58.98
59194;BME280;44967;48.598;15.650;2022-12-10T06:12:17;97007.53;;;6.50;58.72
59194;BME280;44967;48.598;15.650;2022-12-10T06:14:43;97018.84;;;6.56;59.49
59194;BME280;44967;48.598;15.650;2022-12-10T06:17:09;97014.28;;;6.60;58.48
59194;BME280;44967;48.598;15.650;2022-12-10T06:19:34;97027.78;;;6.56;59.01
59194;BME280;44967;48.598;15.650;2022-12-10T06:22:00;97027.19;;;6.67;58.29
59194;BME280;44967;48.598;15.650;2022-12-10T06:24:26;97028.81;;;6.71;58.89
59194;BME280;44967;48.598;15.650;2022-12-10T06:26:52;97030.34;;;6.69;59.02
59194;BME280;44967;48.598;15.650;2022-12-10T06:29:17;97031.09;;;6.69;58.14
59194;BME280;44967;48.598;15.650;2022-12-10T06:31:43;97034.28;;;6.75;57.04
59194;BME280;44967;48.598;15.650;2022-12-10T06:34:09;97033.88;;;6.73;58.18
59194;BME280;44967;48.598;15.650;2022-12-10T06:36:35;97039.97;;;6.66;57.89
59194;BME280;44967;48.598;15.650;2022-12-10T06:39:01;97040.44;;;6.72;57.95
59194;BME280;44967;48.598;15.650;2022-12-10T06:41:27;97041.47;;;6.87;58.47
59194;BME280;44967;48.598;15.650;2022-12-10T06:43:52;97037.56;;;6.84;58.55
59194;BME280;44967;48.598;15.650;2022-12-10T06:46:20;97038.09;;;6.94;57.32
59194;BME280;44967;48.598;15.650;2022-12-10T06:48:46;97034.53;;;6.90;58.46
59194;BME280;44967;48.598;15.650;2022-12-10T06:51:13;97020.72;;;6.75;56.85
59194;BME280;44967;48.598;15.650;2022-12-10T06:53:40;97025.13;;;6.83;59.00
59194;BME280;44967;48.598;15.650;2022-12-10T06:56:07;97018.19;;;6.86;56.64
59194;BME280;44967;48.598;15.650;2022-12-10T06:58:34;97018.91;;;6.83;57.24
59194;BME280;44967;48.598;15.650;2022-12-10T07:01:08;97024.75;;;6.85;57.88
59194;BME280;44967;48.598;15.650;2022-12-10T07:03:34;97009.97;;;6.82;57.10
59194;BME280;44967;48.598;15.650;2022-12-10T07:06:01;97030.47;;;6.80;56.29
59194;BME280;44967;48.598;15.650;2022-12-10T07:08:27;97029.03;;;6.86;56.82
59194;BME280;44967;48.598;15.650;2022-12-10T07:10:52;97016.78;;;6.96;57.17
59194;BME280;44967;48.598;15.650;2022-12-10T07:13:18;97028.56;;;7.04;57.77
59194;BME280;44967;48.598;15.650;2022-12-10T07:15:43;97024.25;;;7.03;56.80
59194;BME280;44967;48.598;15.650;2022-12-10T07:18:09;97014.94;;;7.00;57.67
59194;BME280;44967;48.598;15.650;2022-12-10T07:20:35;97020.03;;;7.05;57.70
59194;BME280;44967;48.598;15.650;2022-12-10T07:23:00;97013.16;;;7.11;58.10
59194;BME280;44967;48.598;15.650;2022-12-10T07:25:26;96999.50;;;7.08;57.58
59194;BME280;44967;48.598;15.650;2022-12-10T07:27:51;97005.13;;;6.95;57.77
59194;BME280;44967;48.598;15.650;2022-12-10T07:30:17;97007.28;;;6.82;58.10
59194;BME280;44967;48.598;15.650;2022-12-10T07:32:42;97007.44;;;6.93;57.34
59194;BME280;44967;48.598;15.650;2022-12-10T07:35:08;97001.47;;;7.07;57.87
59194;BME280;44967;48.598;15.650;2022-12-10T07:37:33;97019.84;;;7.18;57.91
59194;BME280;44967;48.598;15.650;2022-12-10T07:39:59;97019.03;;;7.17;58.50
59194;BME280;44967;48.598;15.650;2022-12-10T07:42:25;97020.00;;;7.29;57.11
59194;BME280;44967;48.598;15.650;2022-12-10T07:44:51;97015.28;;;7.25;57.44
59194;BME280;44967;48.598;15.650;2022-12-10T07:47:17;97006.78;;;7.27;55.69
59194;BME280;44967;48.598;15.650;2022-12-10T07:49:42;97003.59;;;7.21;56.75
59194;BME280;44967;48.598;15.650;2022-12-10T07:52:08;97006.50;;;7.36;57.54
59194;BME280;44967;48.598;15.650;2022-12-10T07:54:37;97001.78;;;7.33;57.70
59194;BME280;44967;48.598;15.650;2022-12-10T07:57:03;96998.81;;;7.41;57.17
59194;BME280;44967;48.598;15.650;2022-12-10T07:59:28;96993.28;;;7.34;57.34
59194;BME280;44967;48.598;15.650;2022-12-10T08:01:54;96991.31;;;7.31;57.25
59194;BME280;44967;48.598;15.650;2022-12-10T08:04:20;97004.31;;;7.45;56.83
59194;BME280;44967;48.598;15.650;2022-12-10T08:06:45;96992.59;;;7.41;56.75
59194;BME280;44967;48.598;15.650;2022-12-10T08:09:13;96996.16;;;7.45;57.08
59194;BME280;44967;48.598;15.650;2022-12-10T08:11:38;97003.50;;;7.45;57.99
59194;BME280;44967;48.598;15.650;2022-12-10T08:14:04;96991.91;;;7.48;57.94
59194;BME280;44967;48.598;15.650;2022-12-10T08:16:30;96983.13;;;7.58;56.67
59194;BME280;44967;48.598;15.650;2022-12-10T08:19:00;96982.75;;;7.60;57.41
59194;BME280;44967;48.598;15.650;2022-12-10T08:21:28;96974.78;;;7.44;57.24
59194;BME280;44967;48.598;15.650;2022-12-10T08:23:55;96976.88;;;7.58;56.95
59194;BME280;44967;48.598;15.650;2022-12-10T08:26:22;96979.56;;;7.54;56.95
59194;BME280;44967;48.598;15.650;2022-12-10T08:28:50;96979.38;;;7.70;57.41
59194;BME280;44967;48.598;15.650;2022-12-10T08:31:17;96984.53;;;7.79;56.24
59194;BME280;44967;48.598;15.650;2022-12-10T08:33:43;96984.38;;;7.64;55.68
59194;BME280;44967;48.598;15.650;2022-12-10T08:36:11;96986.72;;;7.66;56.12
59194;BME280;44967;48.598;15.650;2022-12-10T08:38:37;96990.19;;;7.66;57.04
59194;BME280;44967;48.598;15.650;2022-12-10T08:41:17;96997.19;;;7.67;56.53
59194;BME280;44967;48.598;15.650;2022-12-10T08:43:44;97001.47;;;7.68;55.79
59194;BME280;44967;48.598;15.650;2022-12-10T08:46:11;97005.75;;;7.69;55.70
59194;BME280;44967;48.598;15.650;2022-12-10T08:48:37;97013.69;;;7.51;56.21
59194;BME280;44967;48.598;15.650;2022-12-10T08:51:05;97022.31;;;7.57;56.80
59194;BME280;44967;48.598;15.650;2022-12-10T08:53:32;97021.84;;;7.24;56.57
59194;BME280;44967;48.598;15.650;2022-12-10T08:55:58;97019.25;;;7.32;56.52
59194;BME280;44967;48.598;15.650;2022-12-10T08:58:23;97029.69;;;7.30;57.25
59194;BME280;44967;48.598;15.650;2022-12-10T09:00:49;97046.50;;;7.39;56.93
59194;BME280;44967;48.598;15.650;2022-12-10T09:03:15;97046.09;;;7.37;56.99
59194;BME280;44967;48.598;15.650;2022-12-10T09:05:42;97047.72;;;7.41;56.70
59194;BME280;44967;48.598;15.650;2022-12-10T09:08:08;97059.09;;;7.51;56.99
59194;BME280;44967;48.598;15.650;2022-12-10T09:10:36;97053.88;;;7.38;57.21
59194;BME280;44967;48.598;15.650;2022-12-10T09:13:02;97060.16;;;7.43;56.50
59194;BME280;44967;48.598;15.650;2022-12-10T09:15:27;97052.69;;;7.36;56.43
59194;BME280;44967;48.598;15.650;2022-12-10T09:17:53;97060.09;;;7.39;56.64
59194;BME280;44967;48.598;15.650;2022-12-10T09:20:18;97052.25;;;7.34;56.53
59194;BME280;44967;48.598;15.650;2022-12-10T09:22:44;97056.22;;;7.40;55.98
59194;BME280;44967;48.598;15.650;2022-12-10T09:25:11;97061.28;;;7.41;56.42
59194;BME280;44967;48.598;15.650;2022-12-10T09:27:40;97055.47;;;7.39;56.75
59194;BME280;44967;48.598;15.650;2022-12-10T09:30:07;97049.91;;;7.32;57.77
59194;BME280;44967;48.598;15.650;2022-12-10T09:32:34;97051.69;;;7.48;57.14
59194;BME280;44967;48.598;15.650;2022-12-10T09:34:59;97044.03;;;7.30;57.78
59194;BME280;44967;48.598;15.650;2022-12-10T09:37:25;97039.78;;;7.29;57.53
59194;BME280;44967;48.598;15.650;2022-12-10T09:39:51;97042.38;;;7.22;56.23
59194;BME280;44967;48.598;15.650;2022-12-10T09:45:37;97041.06;;;7.39;56.44
59194;BME280;44967;48.598;15.650;2022-12-10T09:48:29;97035.53;;;7.32;57.36
59194;BME280;44967;48.598;15.650;2022-12-10T09:53:30;97038.31;;;7.62;56.80
59194;BME280;44967;48.598;15.650;2022-12-10T09:55:57;97022.66;;;7.55;57.40
59194;BME280;44967;48.598;15.650;2022-12-10T09:58:26;97036.41;;;7.66;56.76
59194;BME280;44967;48.598;15.650;2022-12-10T10:01:04;97036.09;;;7.72;56.56
59194;BME280;44967;48.598;15.650;2022-12-10T10:03:35;97022.06;;;7.69;56.47
59194;BME280;44967;48.598;15.650;2022-12-10T10:06:02;97020.69;;;7.52;56.60
59194;BME280;44967;48.598;15.650;2022-12-10T10:08:34;97014.66;;;7.66;56.59
59194;BME280;44967;48.598;15.650;2022-12-10T10:11:03;97023.97;;;7.65;56.69
59194;BME280;44967;48.598;15.650;2022-12-10T10:13:39;97026.91;;;7.53;55.68
59194;BME280;44967;48.598;15.650;2022-12-10T10:16:25;97028.56;;;7.61;55.86
59194;BME280;44967;48.598;15.650;2022-12-10T10:19:15;97033.59;;;7.59;57.20
59194;BME280;44967;48.598;15.650;2022-12-10T10:21:43;97031.28;;;7.61;56.01
59194;BME280;44967;48.598;15.650;2022-12-10T10:24:14;97035.59;;;7.62;55.73
59194;BME280;44967;48.598;15.650;2022-12-10T10:26:40;97030.63;;;7.41;56.53
59194;BME280;44967;48.598;15.650;2022-12-10T10:29:08;97033.09;;;7.50;57.18
59194;BME280;44967;48.598;15.650;2022-12-10T10:31:38;97021.56;;;7.60;57.03
59194;BME280;44967;48.598;15.650;2022-12-10T10:34:11;97040.59;;;7.60;57.17
59194;BME280;44967;48.598;15.650;2022-12-10T10:36:39;97036.16;;;7.48;56.94
59194;BME280;44967;48.598;15.650;2022-12-10T10:39:09;97045.25;;;7.60;55.68
59194;BME280;44967;48.598;15.650;2022-12-10T10:41:38;97028.94;;;7.60;55.89
59194;BME280;44967;48.598;15.650;2022-12-10T10:44:13;97035.34;;;7.75;56.05
59194;BME280;44967;48.598;15.650;2022-12-10T10:46:41;97025.63;;;7.74;55.68
59194;BME280;44967;48.598;15.650;2022-12-10T10:49:25;97019.38;;;7.73;55.60
59194;BME280;44967;48.598;15.650;2022-12-10T10:51:53;97018.22;;;7.71;55.96
59194;BME280;44967;48.598;15.650;2022-12-10T10:54:37;97015.50;;;7.71;56.34
59194;BME280;44967;48.598;15.650;2022-12-10T10:57:11;97017.50;;;7.77;56.33
59194;BME280;44967;48.598;15.650;2022-12-10T10:59:37;97015.94;;;7.76;56.55
59194;BME280;44967;48.598;15.650;2022-12-10T11:02:20;97009.41;;;7.81;55.99
59194;BME280;44967;48.598;15.650;2022-12-10T11:04:54;97012.34;;;7.68;55.04
59194;BME280;44967;48.598;15.650;2022-12-10T11:07:23;97000.88;;;7.82;56.20
59194;BME280;44967;48.598;15.650;2022-12-10T11:09:52;96996.66;;;7.89;56.35
59194;BME280;44967;48.598;15.650;2022-12-10T11:12:33;96990.06;;;7.86;56.57
59194;BME280;44967;48.598;15.650;2022-12-10T11:15:00;96987.69;;;7.85;56.06
59194;BME280;44967;48.598;15.650;2022-12-10T11:17:27;96987.16;;;7.72;55.73
59194;BME280;44967;48.598;15.650;2022-12-10T11:20:16;96987.34;;;7.55;55.08
59194;BME280;44967;48.598;15.650;2022-12-10T11:22:53;96982.09;;;7.70;55.77
59194;BME280;44967;48.598;15.650;2022-12-10T11:26:01;96984.91;;;7.77;54.67
59194;BME280;44967;48.598;15.650;2022-12-10T11:50:24;96947.34;;;8.28;54.76
59194;BME280;44967;48.598;15.650;2022-12-10T12:09:15;96942.31;;;7.54;55.09
59194;BME280;44967;48.598;15.650;2022-12-10T12:14:27;96936.06;;;7.50;55.76
59194;BME280;44967;48.598;15.650;2022-12-10T12:20:02;96947.69;;;7.85;54.29
59194;BME280;44967;48.598;15.650;2022-12-10T12:22:32;96946.53;;;7.82;55.25
59194;BME280;44967;48.598;15.650;2022-12-10T12:25:03;96951.56;;;7.84;54.83
59194;BME280;44967;48.598;15.650;2022-12-10T12:27:36;96949.31;;;7.90;56.15
59194;BME280;44967;48.598;15.650;2022-12-10T12:30:14;96945.31;;;7.80;55.61
59194;BME280;44967;48.598;15.650;2022-12-10T12:35:53;96956.59;;;7.82;55.95
59194;BME280;44967;48.598;15.650;2022-12-10T12:38:30;96957.88;;;7.92;55.32
59194;BME280;44967;48.598;15.650;2022-12-10T12:46:02;96957.44;;;7.86;56.28
59194;BME280;44967;48.598;15.650;2022-12-10T12:49:06;96959.03;;;7.91;56.48
59194;BME280;44967;48.598;15.650;2022-12-10T12:51:44;96967.56;;;7.89;56.13
59194;BME280;44967;48.598;15.650;2022-12-10T12:54:12;96964.78;;;7.86;56.26
59194;BME280;44967;48.598;15.650;2022-12-10T13:00:01;96966.88;;;8.00;54.57
59194;BME280;44967;48.598;15.650;2022-12-10T13:05:20;96972.00;;;8.05;54.62
59194;BME280;44967;48.598;15.650;2022-12-10T13:11:33;96966.84;;;7.96;54.48
59194;BME280;44967;48.598;15.650;2022-12-10T13:32:45;96987.47;;;7.66;55.70
59194;BME280;44967;48.598;15.650;2022-12-10T13:46:27;96987.88;;;7.68;53.31
59194;BME280;44967;48.598;15.650;2022-12-10T13:49:00;96992.06;;;7.59;54.51
59194;BME280;44967;48.598;15.650;2022-12-10T13:51:43;96990.09;;;7.90;54.63
59194;BME280;44967;48.598;15.650;2022-12-10T14:05:27;96994.78;;;7.93;54.25
59194;BME280;44967;48.598;15.650;2022-12-10T14:08:00;96987.53;;;7.70;55.41
59194;BME280;44967;48.598;15.650;2022-12-10T14:10:33;96979.69;;;7.65;54.17
59194;BME280;44967;48.598;15.650;2022-12-10T14:13:02;96981.78;;;7.75;54.65
59194;BME280;44967;48.598;15.650;2022-12-10T14:15:28;96971.00;;;7.82;54.46
59194;BME280;44967;48.598;15.650;2022-12-10T14:18:10;96974.88;;;7.85;55.31
59194;BME280;44967;48.598;15.650;2022-12-10T14:20:46;96982.63;;;7.83;54.70
59194;BME280;44967;48.598;15.650;2022-12-10T14:26:14;96980.44;;;7.96;54.21
59194;BME280;44967;48.598;15.650;2022-12-10T14:28:42;96989.94;;;7.75;54.28
59194;BME280;44967;48.598;15.650;2022-12-10T14:31:21;96991.84;;;7.75;55.12
59194;BME280;44967;48.598;15.650;2022-12-10T14:33:50;96996.69;;;7.58;55.65
59194;BME280;44967;48.598;15.650;2022-12-10T14:36:29;96996.13;;;7.76;54.19
59194;BME280;44967;48.598;15.650;2022-12-10T14:38:57;97002.94;;;7.93;54.52
59194;BME280;44967;48.598;15.650;2022-12-10T14:41:24;97004.66;;;7.74;54.07
59194;BME280;44967;48.598;15.650;2022-12-10T14:43:50;97003.16;;;7.80;55.12
59194;BME280;44967;48.598;15.650;2022-12-10T14:46:23;96999.25;;;7.74;55.90
59194;BME280;44967;48.598;15.650;2022-12-10T14:48:53;97001.66;;;7.83;55.04
59194;BME280;44967;48.598;15.650;2022-12-10T14:51:22;96995.63;;;7.66;55.74
59194;BME280;44967;48.598;15.650;2022-12-10T14:53:49;96998.50;;;7.77;55.19
59194;BME280;44967;48.598;15.650;2022-12-10T14:56:22;96993.97;;;7.92;54.53
59194;BME280;44967;48.598;15.650;2022-12-10T15:01:45;96988.81;;;7.80;54.20
59194;BME280;44967;48.598;15.650;2022-12-10T15:04:18;97004.19;;;7.68;54.58
59194;BME280;44967;48.598;15.650;2022-12-10T15:06:44;97000.25;;;7.62;56.00
59194;BME280;44967;48.598;15.650;2022-12-10T15:09:19;96995.31;;;7.72;55.63
59194;BME280;44967;48.598;15.650;2022-12-10T15:11:53;96992.91;;;7.66;55.50
59194;BME280;44967;48.598;15.650;2022-12-10T15:14:19;97000.13;;;7.51;55.68
59194;BME280;44967;48.598;15.650;2022-12-10T15:16:46;96994.38;;;7.60;55.42
59194;BME280;44967;48.598;15.650;2022-12-10T15:21:59;97002.53;;;7.60;55.74
59194;BME280;44967;48.598;15.650;2022-12-10T15:24:27;97001.13;;;7.70;56.17
59194;BME280;44967;48.598;15.650;2022-12-10T15:26:54;97000.00;;;7.75;56.94